Mulgrave, Canada
Current Conditions -  °F | °C
As of 9:00 AM on Friday 19 Dec 2014 (Local Time) from CYPD Reporting Station
Overcast Overcast  
Wind Chill: 27°   Ceiling: 1300
Heat Index: 34°   Visibility: 9mi
Dew Point: 32°   Wind: 8mph
Humidity: 93%   Direction: 270°W
Pressure: 29.51"   Gusts: NA
Location:  45.62°N, 61.4°W
Report Text: CYPD 191300Z AUTO 27007KT 9SM BKN013 OVC020 01/00 A2951 RMK SLP997
Loading
Personal Weather Stations






























Interactive Weather Map New forecast layout! Learn more

10-Day Weather Forecast

Advertisements
Track Severe Weather on mobile